sensor_id;sensor_type;location;lat;lon;timestamp;P1;durP1;ratioP1;P2;durP2;ratioP2
55879;SDS011;41802;51.564;-1.838;2023-02-23T00:01:37;11.73;;;4.85;;
55879;SDS011;41802;51.564;-1.838;2023-02-23T00:04:06;14.50;;;6.10;;
55879;SDS011;41802;51.564;-1.838;2023-02-23T00:06:35;14.05;;;5.28;;
55879;SDS011;41802;51.564;-1.838;2023-02-23T00:09:04;14.37;;;5.37;;
55879;SDS011;41802;51.564;-1.838;2023-02-23T00:11:39;13.80;;;5.63;;
55879;SDS011;41802;51.564;-1.838;2023-02-23T00:14:07;15.43;;;6.03;;
55879;SDS011;41802;51.564;-1.838;2023-02-23T00:16:35;13.63;;;5.22;;
55879;SDS011;41802;51.564;-1.838;2023-02-23T00:19:03;14.38;;;5.40;;
55879;SDS011;41802;51.564;-1.838;2023-02-23T00:21:33;14.10;;;5.87;;
55879;SDS011;41802;51.564;-1.838;2023-02-23T00:24:02;11.27;;;4.68;;
55879;SDS011;41802;51.564;-1.838;2023-02-23T00:26:33;14.25;;;5.63;;
55879;SDS011;41802;51.564;-1.838;2023-02-23T00:29:06;12.98;;;5.28;;
55879;SDS011;41802;51.564;-1.838;2023-02-23T00:31:34;11.38;;;4.72;;
55879;SDS011;41802;51.564;-1.838;2023-02-23T00:34:04;10.93;;;3.87;;
55879;SDS011;41802;51.564;-1.838;2023-02-23T00:36:32;11.32;;;4.32;;
55879;SDS011;41802;51.564;-1.838;2023-02-23T00:39:02;11.90;;;4.20;;
55879;SDS011;41802;51.564;-1.838;2023-02-23T00:41:46;9.98;;;4.03;;
55879;SDS011;41802;51.564;-1.838;2023-02-23T00:44:15;11.30;;;4.25;;
55879;SDS011;41802;51.564;-1.838;2023-02-23T00:46:43;11.03;;;4.43;;
55879;SDS011;41802;51.564;-1.838;2023-02-23T00:49:14;9.52;;;3.72;;
55879;SDS011;41802;51.564;-1.838;2023-02-23T00:51:41;12.02;;;4.20;;
55879;SDS011;41802;51.564;-1.838;2023-02-23T00:54:09;11.95;;;4.20;;
55879;SDS011;41802;51.564;-1.838;2023-02-23T00:56:38;10.35;;;3.67;;
55879;SDS011;41802;51.564;-1.838;2023-02-23T00:59:06;10.93;;;3.87;;
55879;SDS011;41802;51.564;-1.838;2023-02-23T01:01:37;11.05;;;4.50;;
55879;SDS011;41802;51.564;-1.838;2023-02-23T01:04:07;12.57;;;4.47;;
55879;SDS011;41802;51.564;-1.838;2023-02-23T01:06:35;10.60;;;4.05;;
55879;SDS011;41802;51.564;-1.838;2023-02-23T01:09:05;11.38;;;4.50;;
55879;SDS011;41802;51.564;-1.838;2023-02-23T01:11:38;13.73;;;4.40;;
55879;SDS011;41802;51.564;-1.838;2023-02-23T01:14:08;12.95;;;4.43;;
55879;SDS011;41802;51.564;-1.838;2023-02-23T01:16:37;12.23;;;4.32;;
55879;SDS011;41802;51.564;-1.838;2023-02-23T01:19:05;10.18;;;3.95;;
55879;SDS011;41802;51.564;-1.838;2023-02-23T01:21:34;10.68;;;3.83;;
55879;SDS011;41802;51.564;-1.838;2023-02-23T01:24:02;13.83;;;4.57;;
55879;SDS011;41802;51.564;-1.838;2023-02-23T01:26:30;10.32;;;4.03;;
55879;SDS011;41802;51.564;-1.838;2023-02-23T01:29:00;10.88;;;3.92;;
55879;SDS011;41802;51.564;-1.838;2023-02-23T01:31:28;11.93;;;3.88;;
55879;SDS011;41802;51.564;-1.838;2023-02-23T01:34:03;9.25;;;3.85;;
55879;SDS011;41802;51.564;-1.838;2023-02-23T01:36:32;8.37;;;3.57;;
55879;SDS011;41802;51.564;-1.838;2023-02-23T01:39:00;11.35;;;3.22;;
55879;SDS011;41802;51.564;-1.838;2023-02-23T01:41:28;10.15;;;3.45;;
55879;SDS011;41802;51.564;-1.838;2023-02-23T01:43:59;8.98;;;3.08;;
55879;SDS011;41802;51.564;-1.838;2023-02-23T01:46:26;8.90;;;3.38;;
55879;SDS011;41802;51.564;-1.838;2023-02-23T01:48:54;13.47;;;4.33;;
55879;SDS011;41802;51.564;-1.838;2023-02-23T01:51:24;8.90;;;3.17;;
55879;SDS011;41802;51.564;-1.838;2023-02-23T01:53:54;9.75;;;3.53;;
55879;SDS011;41802;51.564;-1.838;2023-02-23T01:56:23;9.27;;;3.42;;
55879;SDS011;41802;51.564;-1.838;2023-02-23T01:58:53;10.98;;;3.85;;
55879;SDS011;41802;51.564;-1.838;2023-02-23T02:01:21;9.73;;;3.90;;
55879;SDS011;41802;51.564;-1.838;2023-02-23T02:03:51;9.00;;;3.10;;
55879;SDS011;41802;51.564;-1.838;2023-02-23T02:06:20;8.73;;;3.20;;
55879;SDS011;41802;51.564;-1.838;2023-02-23T02:08:51;7.55;;;3.08;;
55879;SDS011;41802;51.564;-1.838;2023-02-23T02:11:21;9.02;;;3.30;;
55879;SDS011;41802;51.564;-1.838;2023-02-23T02:13:57;9.93;;;3.63;;
55879;SDS011;41802;51.564;-1.838;2023-02-23T02:16:32;9.48;;;3.40;;
55879;SDS011;41802;51.564;-1.838;2023-02-23T02:19:14;8.98;;;3.00;;
55879;SDS011;41802;51.564;-1.838;2023-02-23T02:21:55;9.38;;;2.78;;
55879;SDS011;41802;51.564;-1.838;2023-02-23T02:27:37;10.00;;;3.03;;
55879;SDS011;41802;51.564;-1.838;2023-02-23T02:38:50;8.75;;;3.25;;
55879;SDS011;41802;51.564;-1.838;2023-02-23T02:41:23;10.60;;;3.17;;
55879;SDS011;41802;51.564;-1.838;2023-02-23T02:43:54;10.55;;;3.20;;
55879;SDS011;41802;51.564;-1.838;2023-02-23T02:46:25;11.00;;;3.17;;
55879;SDS011;41802;51.564;-1.838;2023-02-23T02:48:55;11.57;;;3.20;;
55879;SDS011;41802;51.564;-1.838;2023-02-23T02:51:25;10.23;;;2.85;;
55879;SDS011;41802;51.564;-1.838;2023-02-23T02:53:57;10.17;;;3.13;;
55879;SDS011;41802;51.564;-1.838;2023-02-23T02:56:32;8.25;;;2.60;;
55879;SDS011;41802;51.564;-1.838;2023-02-23T02:59:14;7.60;;;2.40;;
55879;SDS011;41802;51.564;-1.838;2023-02-23T03:02:00;11.55;;;3.00;;
55879;SDS011;41802;51.564;-1.838;2023-02-23T03:04:45;8.02;;;2.63;;
55879;SDS011;41802;51.564;-1.838;2023-02-23T03:07:33;8.83;;;2.60;;
55879;SDS011;41802;51.564;-1.838;2023-02-23T03:10:21;7.53;;;2.40;;
55879;SDS011;41802;51.564;-1.838;2023-02-23T03:13:12;8.18;;;2.58;;
55879;SDS011;41802;51.564;-1.838;2023-02-23T03:16:04;11.55;;;3.55;;
55879;SDS011;41802;51.564;-1.838;2023-02-23T03:18:56;7.03;;;2.08;;
55879;SDS011;41802;51.564;-1.838;2023-02-23T03:21:48;8.73;;;2.63;;
55879;SDS011;41802;51.564;-1.838;2023-02-23T03:24:36;7.35;;;1.83;;
55879;SDS011;41802;51.564;-1.838;2023-02-23T03:27:27;7.30;;;2.00;;
55879;SDS011;41802;51.564;-1.838;2023-02-23T03:30:15;7.63;;;1.60;;
55879;SDS011;41802;51.564;-1.838;2023-02-23T03:33:05;7.22;;;1.83;;
55879;SDS011;41802;51.564;-1.838;2023-02-23T03:35:52;9.13;;;1.83;;
55879;SDS011;41802;51.564;-1.838;2023-02-23T03:38:41;6.82;;;1.70;;
55879;SDS011;41802;51.564;-1.838;2023-02-23T03:41:28;8.80;;;2.10;;
55879;SDS011;41802;51.564;-1.838;2023-02-23T03:44:20;7.15;;;2.17;;
55879;SDS011;41802;51.564;-1.838;2023-02-23T03:47:07;7.03;;;2.00;;
55879;SDS011;41802;51.564;-1.838;2023-02-23T03:49:53;7.83;;;2.17;;
55879;SDS011;41802;51.564;-1.838;2023-02-23T03:52:40;6.13;;;1.90;;
55879;SDS011;41802;51.564;-1.838;2023-02-23T03:55:30;10.23;;;2.42;;
55879;SDS011;41802;51.564;-1.838;2023-02-23T03:58:21;9.18;;;2.20;;
55879;SDS011;41802;51.564;-1.838;2023-02-23T04:01:08;6.80;;;2.00;;
55879;SDS011;41802;51.564;-1.838;2023-02-23T04:03:54;7.00;;;1.87;;
55879;SDS011;41802;51.564;-1.838;2023-02-23T04:06:43;10.10;;;2.10;;
55879;SDS011;41802;51.564;-1.838;2023-02-23T04:09:28;7.38;;;2.10;;
55879;SDS011;41802;51.564;-1.838;2023-02-23T04:12:14;8.02;;;2.10;;
55879;SDS011;41802;51.564;-1.838;2023-02-23T04:15:03;9.88;;;2.08;;
55879;SDS011;41802;51.564;-1.838;2023-02-23T04:17:33;7.73;;;2.00;;
55879;SDS011;41802;51.564;-1.838;2023-02-23T04:20:01;9.38;;;2.20;;
55879;SDS011;41802;51.564;-1.838;2023-02-23T04:22:29;10.13;;;2.30;;
55879;SDS011;41802;51.564;-1.838;2023-02-23T04:24:57;8.63;;;1.98;;
55879;SDS011;41802;51.564;-1.838;2023-02-23T04:27:25;9.65;;;2.22;;
55879;SDS011;41802;51.564;-1.838;2023-02-23T04:29:53;8.20;;;1.83;;
55879;SDS011;41802;51.564;-1.838;2023-02-23T04:32:20;11.20;;;2.05;;
55879;SDS011;41802;51.564;-1.838;2023-02-23T04:34:49;8.50;;;2.25;;
55879;SDS011;41802;51.564;-1.838;2023-02-23T04:37:18;6.85;;;1.98;;
55879;SDS011;41802;51.564;-1.838;2023-02-23T04:39:47;11.57;;;2.15;;
55879;SDS011;41802;51.564;-1.838;2023-02-23T04:42:15;7.67;;;2.40;;
55879;SDS011;41802;51.564;-1.838;2023-02-23T04:44:44;7.93;;;2.10;;
55879;SDS011;41802;51.564;-1.838;2023-02-23T04:47:12;8.45;;;2.10;;
55879;SDS011;41802;51.564;-1.838;2023-02-23T04:49:40;8.93;;;2.20;;
55879;SDS011;41802;51.564;-1.838;2023-02-23T04:52:09;6.50;;;1.90;;
55879;SDS011;41802;51.564;-1.838;2023-02-23T04:54:37;8.63;;;2.33;;
55879;SDS011;41802;51.564;-1.838;2023-02-23T04:57:05;9.20;;;2.28;;
55879;SDS011;41802;51.564;-1.838;2023-02-23T04:59:33;12.98;;;2.40;;
55879;SDS011;41802;51.564;-1.838;2023-02-23T05:02:00;7.35;;;1.90;;
55879;SDS011;41802;51.564;-1.838;2023-02-23T05:04:29;8.63;;;1.88;;
55879;SDS011;41802;51.564;-1.838;2023-02-23T05:07:00;7.13;;;2.03;;
55879;SDS011;41802;51.564;-1.838;2023-02-23T05:09:30;7.20;;;2.10;;
55879;SDS011;41802;51.564;-1.838;2023-02-23T05:11:58;9.63;;;2.13;;
55879;SDS011;41802;51.564;-1.838;2023-02-23T05:14:25;8.20;;;1.73;;
55879;SDS011;41802;51.564;-1.838;2023-02-23T05:16:53;8.23;;;2.55;;
55879;SDS011;41802;51.564;-1.838;2023-02-23T05:19:21;7.13;;;1.50;;
55879;SDS011;41802;51.564;-1.838;2023-02-23T05:21:49;5.90;;;1.30;;
55879;SDS011;41802;51.564;-1.838;2023-02-23T05:24:16;9.32;;;2.08;;
55879;SDS011;41802;51.564;-1.838;2023-02-23T05:26:45;7.05;;;1.50;;
55879;SDS011;41802;51.564;-1.838;2023-02-23T05:29:15;10.25;;;2.38;;
55879;SDS011;41802;51.564;-1.838;2023-02-23T05:31:43;7.20;;;1.67;;
55879;SDS011;41802;51.564;-1.838;2023-02-23T05:34:11;7.70;;;1.83;;
55879;SDS011;41802;51.564;-1.838;2023-02-23T05:36:40;7.15;;;1.75;;
55879;SDS011;41802;51.564;-1.838;2023-02-23T05:39:08;11.07;;;2.10;;
55879;SDS011;41802;51.564;-1.838;2023-02-23T05:41:35;6.82;;;2.05;;
55879;SDS011;41802;51.564;-1.838;2023-02-23T05:44:05;9.53;;;2.63;;
55879;SDS011;41802;51.564;-1.838;2023-02-23T05:46:32;8.98;;;1.95;;
55879;SDS011;41802;51.564;-1.838;2023-02-23T05:49:01;6.07;;;2.00;;
55879;SDS011;41802;51.564;-1.838;2023-02-23T05:51:31;7.18;;;1.92;;
55879;SDS011;41802;51.564;-1.838;2023-02-23T05:53:58;8.77;;;2.17;;
55879;SDS011;41802;51.564;-1.838;2023-02-23T05:56:30;9.03;;;2.43;;
55879;SDS011;41802;51.564;-1.838;2023-02-23T05:58:59;7.75;;;2.25;;
55879;SDS011;41802;51.564;-1.838;2023-02-23T06:01:29;9.70;;;2.35;;
55879;SDS011;41802;51.564;-1.838;2023-02-23T06:03:56;7.90;;;1.90;;
55879;SDS011;41802;51.564;-1.838;2023-02-23T06:06:25;7.07;;;2.17;;
55879;SDS011;41802;51.564;-1.838;2023-02-23T06:08:53;15.60;;;2.83;;
55879;SDS011;41802;51.564;-1.838;2023-02-23T06:11:21;8.60;;;2.60;;
55879;SDS011;41802;51.564;-1.838;2023-02-23T06:13:49;9.30;;;1.90;;
55879;SDS011;41802;51.564;-1.838;2023-02-23T06:16:18;11.02;;;2.42;;
55879;SDS011;41802;51.564;-1.838;2023-02-23T06:18:47;10.40;;;3.22;;
55879;SDS011;41802;51.564;-1.838;2023-02-23T06:21:15;6.93;;;1.67;;
55879;SDS011;41802;51.564;-1.838;2023-02-23T06:23:43;8.55;;;2.35;;
55879;SDS011;41802;51.564;-1.838;2023-02-23T06:26:12;9.82;;;2.53;;
55879;SDS011;41802;51.564;-1.838;2023-02-23T06:28:40;9.00;;;2.38;;
55879;SDS011;41802;51.564;-1.838;2023-02-23T06:31:07;13.02;;;2.63;;
55879;SDS011;41802;51.564;-1.838;2023-02-23T06:33:35;7.33;;;2.20;;
55879;SDS011;41802;51.564;-1.838;2023-02-23T06:36:04;12.27;;;3.28;;
55879;SDS011;41802;51.564;-1.838;2023-02-23T06:38:32;9.10;;;2.42;;
55879;SDS011;41802;51.564;-1.838;2023-02-23T06:41:05;8.32;;;2.33;;
55879;SDS011;41802;51.564;-1.838;2023-02-23T06:43:32;8.82;;;2.63;;
55879;SDS011;41802;51.564;-1.838;2023-02-23T06:46:00;11.93;;;2.27;;
55879;SDS011;41802;51.564;-1.838;2023-02-23T06:48:28;13.52;;;2.47;;
55879;SDS011;41802;51.564;-1.838;2023-02-23T06:50:56;8.93;;;2.85;;
55879;SDS011;41802;51.564;-1.838;2023-02-23T06:53:25;9.35;;;3.08;;
55879;SDS011;41802;51.564;-1.838;2023-02-23T06:55:53;10.20;;;2.53;;
55879;SDS011;41802;51.564;-1.838;2023-02-23T06:58:21;10.20;;;2.40;;
55879;SDS011;41802;51.564;-1.838;2023-02-23T07:00:48;12.18;;;3.10;;
55879;SDS011;41802;51.564;-1.838;2023-02-23T07:03:16;7.65;;;1.95;;
55879;SDS011;41802;51.564;-1.838;2023-02-23T07:05:44;9.35;;;2.40;;
55879;SDS011;41802;51.564;-1.838;2023-02-23T07:08:12;8.20;;;2.10;;
55879;SDS011;41802;51.564;-1.838;2023-02-23T07:10:43;8.40;;;2.20;;
55879;SDS011;41802;51.564;-1.838;2023-02-23T07:13:17;9.35;;;1.92;;
55879;SDS011;41802;51.564;-1.838;2023-02-23T07:15:45;9.68;;;1.67;;
55879;SDS011;41802;51.564;-1.838;2023-02-23T07:18:13;10.85;;;1.77;;
55879;SDS011;41802;51.564;-1.838;2023-02-23T07:20:41;12.73;;;1.55;;
55879;SDS011;41802;51.564;-1.838;2023-02-23T07:23:09;12.47;;;2.23;;
55879;SDS011;41802;51.564;-1.838;2023-02-23T07:25:37;12.50;;;1.80;;
55879;SDS011;41802;51.564;-1.838;2023-02-23T07:28:05;10.40;;;1.75;;
55879;SDS011;41802;51.564;-1.838;2023-02-23T07:30:33;8.13;;;1.30;;
55879;SDS011;41802;51.564;-1.838;2023-02-23T07:33:01;15.13;;;2.47;;
55879;SDS011;41802;51.564;-1.838;2023-02-23T07:35:29;11.23;;;1.63;;
55879;SDS011;41802;51.564;-1.838;2023-02-23T07:37:57;11.23;;;2.17;;
55879;SDS011;41802;51.564;-1.838;2023-02-23T07:40:24;9.80;;;1.63;;
55879;SDS011;41802;51.564;-1.838;2023-02-23T07:42:52;8.80;;;1.58;;
55879;SDS011;41802;51.564;-1.838;2023-02-23T07:45:22;7.05;;;1.40;;
55879;SDS011;41802;51.564;-1.838;2023-02-23T07:47:50;8.57;;;1.80;;
55879;SDS011;41802;51.564;-1.838;2023-02-23T07:50:18;9.85;;;1.58;;
55879;SDS011;41802;51.564;-1.838;2023-02-23T07:52:46;7.25;;;1.58;;
55879;SDS011;41802;51.564;-1.838;2023-02-23T07:55:13;9.60;;;1.65;;
55879;SDS011;41802;51.564;-1.838;2023-02-23T07:57:41;7.93;;;1.48;;
55879;SDS011;41802;51.564;-1.838;2023-02-23T08:00:10;13.73;;;1.60;;
55879;SDS011;41802;51.564;-1.838;2023-02-23T08:02:39;11.73;;;2.55;;
55879;SDS011;41802;51.564;-1.838;2023-02-23T08:05:07;16.15;;;1.70;;
55879;SDS011;41802;51.564;-1.838;2023-02-23T08:07:35;12.02;;;1.70;;
55879;SDS011;41802;51.564;-1.838;2023-02-23T08:10:03;9.93;;;1.15;;
55879;SDS011;41802;51.564;-1.838;2023-02-23T08:12:31;22.20;;;2.10;;
55879;SDS011;41802;51.564;-1.838;2023-02-23T08:15:00;10.20;;;1.73;;
55879;SDS011;41802;51.564;-1.838;2023-02-23T08:17:28;8.20;;;1.45;;
55879;SDS011;41802;51.564;-1.838;2023-02-23T08:19:57;12.88;;;1.00;;
55879;SDS011;41802;51.564;-1.838;2023-02-23T08:22:26;12.20;;;2.10;;
55879;SDS011;41802;51.564;-1.838;2023-02-23T08:25:00;13.23;;;1.40;;
55879;SDS011;41802;51.564;-1.838;2023-02-23T08:27:32;19.25;;;1.65;;
55879;SDS011;41802;51.564;-1.838;2023-02-23T08:30:00;12.38;;;1.90;;
55879;SDS011;41802;51.564;-1.838;2023-02-23T08:32:30;10.77;;;1.92;;
55879;SDS011;41802;51.564;-1.838;2023-02-23T08:35:04;12.40;;;1.45;;
55879;SDS011;41802;51.564;-1.838;2023-02-23T08:37:33;12.70;;;2.03;;
55879;SDS011;41802;51.564;-1.838;2023-02-23T08:40:00;11.70;;;1.20;;
55879;SDS011;41802;51.564;-1.838;2023-02-23T08:42:28;12.23;;;1.75;;
55879;SDS011;41802;51.564;-1.838;2023-02-23T08:44:56;7.93;;;1.63;;
55879;SDS011;41802;51.564;-1.838;2023-02-23T08:47:26;18.05;;;1.67;;
55879;SDS011;41802;51.564;-1.838;2023-02-23T08:49:55;16.07;;;2.60;;
55879;SDS011;41802;51.564;-1.838;2023-02-23T08:52:24;15.43;;;2.03;;
55879;SDS011;41802;51.564;-1.838;2023-02-23T08:54:52;10.73;;;1.00;;
55879;SDS011;41802;51.564;-1.838;2023-02-23T08:57:21;15.68;;;1.90;;
55879;SDS011;41802;51.564;-1.838;2023-02-23T08:59:49;12.88;;;1.40;;
55879;SDS011;41802;51.564;-1.838;2023-02-23T09:02:17;15.03;;;1.70;;
55879;SDS011;41802;51.564;-1.838;2023-02-23T09:04:44;14.30;;;1.55;;
55879;SDS011;41802;51.564;-1.838;2023-02-23T09:07:13;10.10;;;1.40;;
55879;SDS011;41802;51.564;-1.838;2023-02-23T09:09:43;20.13;;;1.80;;
55879;SDS011;41802;51.564;-1.838;2023-02-23T09:12:10;10.75;;;1.20;;
55879;SDS011;41802;51.564;-1.838;2023-02-23T09:14:38;15.33;;;3.00;;
55879;SDS011;41802;51.564;-1.838;2023-02-23T09:17:06;7.70;;;1.13;;
55879;SDS011;41802;51.564;-1.838;2023-02-23T09:19:33;13.25;;;1.77;;
55879;SDS011;41802;51.564;-1.838;2023-02-23T09:22:18;11.07;;;1.50;;
55879;SDS011;41802;51.564;-1.838;2023-02-23T09:24:47;10.50;;;1.10;;
55879;SDS011;41802;51.564;-1.838;2023-02-23T09:27:15;12.30;;;1.17;;
55879;SDS011;41802;51.564;-1.838;2023-02-23T09:29:42;15.00;;;1.25;;
55879;SDS011;41802;51.564;-1.838;2023-02-23T09:32:10;10.60;;;0.98;;
55879;SDS011;41802;51.564;-1.838;2023-02-23T09:34:38;12.93;;;1.42;;
55879;SDS011;41802;51.564;-1.838;2023-02-23T09:37:06;14.95;;;1.52;;
55879;SDS011;41802;51.564;-1.838;2023-02-23T09:39:34;9.67;;;1.43;;
55879;SDS011;41802;51.564;-1.838;2023-02-23T09:42:15;11.95;;;0.88;;
55879;SDS011;41802;51.564;-1.838;2023-02-23T09:44:52;17.70;;;1.25;;
55879;SDS011;41802;51.564;-1.838;2023-02-23T09:47:26;14.77;;;1.00;;
55879;SDS011;41802;51.564;-1.838;2023-02-23T09:49:56;8.45;;;0.90;;
55879;SDS011;41802;51.564;-1.838;2023-02-23T09:52:26;10.83;;;1.07;;
55879;SDS011;41802;51.564;-1.838;2023-02-23T09:54:54;13.50;;;1.30;;
55879;SDS011;41802;51.564;-1.838;2023-02-23T09:57:27;9.10;;;0.80;;
55879;SDS011;41802;51.564;-1.838;2023-02-23T09:59:58;11.63;;;1.00;;
55879;SDS011;41802;51.564;-1.838;2023-02-23T10:02:27;10.45;;;0.80;;
55879;SDS011;41802;51.564;-1.838;2023-02-23T10:05:00;9.60;;;1.10;;
55879;SDS011;41802;51.564;-1.838;2023-02-23T10:07:31;15.38;;;1.20;;
55879;SDS011;41802;51.564;-1.838;2023-02-23T10:10:07;13.30;;;0.85;;
55879;SDS011;41802;51.564;-1.838;2023-02-23T10:12:43;10.75;;;1.10;;
55879;SDS011;41802;51.564;-1.838;2023-02-23T10:15:13;12.45;;;1.13;;
55879;SDS011;41802;51.564;-1.838;2023-02-23T10:17:43;12.77;;;1.77;;
55879;SDS011;41802;51.564;-1.838;2023-02-23T10:20:17;14.52;;;1.42;;
55879;SDS011;41802;51.564;-1.838;2023-02-23T10:22:46;14.00;;;1.83;;
55879;SDS011;41802;51.564;-1.838;2023-02-23T10:25:15;14.02;;;1.42;;
55879;SDS011;41802;51.564;-1.838;2023-02-23T10:27:49;16.85;;;1.55;;
55879;SDS011;41802;51.564;-1.838;2023-02-23T10:30:18;13.73;;;1.60;;
55879;SDS011;41802;51.564;-1.838;2023-02-23T10:32:55;14.23;;;1.23;;
55879;SDS011;41802;51.564;-1.838;2023-02-23T10:35:44;11.10;;;0.70;;
55879;SDS011;41802;51.564;-1.838;2023-02-23T10:38:13;11.75;;;1.08;;
55879;SDS011;41802;51.564;-1.838;2023-02-23T10:40:41;12.52;;;1.33;;
55879;SDS011;41802;51.564;-1.838;2023-02-23T10:43:11;9.57;;;1.30;;
55879;SDS011;41802;51.564;-1.838;2023-02-23T10:45:40;11.50;;;1.70;;
55879;SDS011;41802;51.564;-1.838;2023-02-23T10:48:13;8.38;;;1.25;;
55879;SDS011;41802;51.564;-1.838;2023-02-23T10:50:42;13.70;;;1.05;;
55879;SDS011;41802;51.564;-1.838;2023-02-23T10:53:12;14.50;;;1.00;;
55879;SDS011;41802;51.564;-1.838;2023-02-23T10:55:42;9.93;;;1.40;;
55879;SDS011;41802;51.564;-1.838;2023-02-23T10:58:13;13.35;;;1.60;;
55879;SDS011;41802;51.564;-1.838;2023-02-23T11:00:49;12.73;;;1.38;;
55879;SDS011;41802;51.564;-1.838;2023-02-23T11:03:21;12.90;;;1.40;;
55879;SDS011;41802;51.564;-1.838;2023-02-23T11:05:50;15.60;;;1.75;;
55879;SDS011;41802;51.564;-1.838;2023-02-23T11:08:23;14.57;;;1.83;;
55879;SDS011;41802;51.564;-1.838;2023-02-23T11:10:58;13.88;;;1.33;;
55879;SDS011;41802;51.564;-1.838;2023-02-23T11:13:28;13.32;;;0.80;;
55879;SDS011;41802;51.564;-1.838;2023-02-23T11:16:00;11.55;;;0.90;;
55879;SDS011;41802;51.564;-1.838;2023-02-23T11:18:30;17.92;;;1.20;;
55879;SDS011;41802;51.564;-1.838;2023-02-23T11:20:57;8.03;;;1.10;;
55879;SDS011;41802;51.564;-1.838;2023-02-23T11:23:26;13.18;;;1.33;;
55879;SDS011;41802;51.564;-1.838;2023-02-23T11:25:56;12.75;;;1.33;;
55879;SDS011;41802;51.564;-1.838;2023-02-23T11:28:28;11.95;;;1.10;;
55879;SDS011;41802;51.564;-1.838;2023-02-23T11:30:59;16.33;;;1.50;;
55879;SDS011;41802;51.564;-1.838;2023-02-23T11:33:29;14.23;;;1.40;;
55879;SDS011;41802;51.564;-1.838;2023-02-23T11:36:13;15.13;;;1.10;;
55879;SDS011;41802;51.564;-1.838;2023-02-23T11:38:41;9.43;;;1.20;;
55879;SDS011;41802;51.564;-1.838;2023-02-23T11:41:21;7.60;;;0.95;;
55879;SDS011;41802;51.564;-1.838;2023-02-23T11:43:51;12.30;;;1.45;;
55879;SDS011;41802;51.564;-1.838;2023-02-23T11:46:22;7.83;;;1.37;;
55879;SDS011;41802;51.564;-1.838;2023-02-23T11:48:55;20.60;;;1.67;;
55879;SDS011;41802;51.564;-1.838;2023-02-23T11:51:25;13.75;;;1.52;;
55879;SDS011;41802;51.564;-1.838;2023-02-23T11:53:54;15.30;;;1.63;;
55879;SDS011;41802;51.564;-1.838;2023-02-23T11:56:22;14.48;;;1.60;;
55879;SDS011;41802;51.564;-1.838;2023-02-23T11:58:53;11.87;;;1.80;;
55879;SDS011;41802;51.564;-1.838;2023-02-23T12:01:33;12.20;;;1.70;;
55879;SDS011;41802;51.564;-1.838;2023-02-23T12:04:01;9.30;;;0.98;;
55879;SDS011;41802;51.564;-1.838;2023-02-23T12:06:30;7.38;;;0.93;;
55879;SDS011;41802;51.564;-1.838;2023-02-23T12:09:03;9.07;;;1.67;;
55879;SDS011;41802;51.564;-1.838;2023-02-23T12:11:35;10.50;;;1.13;;
55879;SDS011;41802;51.564;-1.838;2023-02-23T12:14:06;10.43;;;1.23;;
55879;SDS011;41802;51.564;-1.838;2023-02-23T12:16:38;8.27;;;0.98;;
55879;SDS011;41802;51.564;-1.838;2023-02-23T12:19:09;11.23;;;1.38;;
55879;SDS011;41802;51.564;-1.838;2023-02-23T12:21:40;11.27;;;1.33;;
55879;SDS011;41802;51.564;-1.838;2023-02-23T12:24:12;15.40;;;1.57;;
55879;SDS011;41802;51.564;-1.838;2023-02-23T12:26:43;14.38;;;1.75;;
55879;SDS011;41802;51.564;-1.838;2023-02-23T12:29:16;10.70;;;1.05;;
55879;SDS011;41802;51.564;-1.838;2023-02-23T12:31:46;8.18;;;1.02;;
55879;SDS011;41802;51.564;-1.838;2023-02-23T12:34:16;6.72;;;0.88;;
55879;SDS011;41802;51.564;-1.838;2023-02-23T12:36:46;8.40;;;0.90;;
55879;SDS011;41802;51.564;-1.838;2023-02-23T12:39:23;8.32;;;1.30;;
55879;SDS011;41802;51.564;-1.838;2023-02-23T12:41:56;7.25;;;0.82;;
55879;SDS011;41802;51.564;-1.838;2023-02-23T12:44:31;13.88;;;1.10;;
55879;SDS011;41802;51.564;-1.838;2023-02-23T12:47:01;11.45;;;1.30;;
55879;SDS011;41802;51.564;-1.838;2023-02-23T12:49:33;7.20;;;0.87;;
55879;SDS011;41802;51.564;-1.838;2023-02-23T12:52:08;8.15;;;0.93;;
55879;SDS011;41802;51.564;-1.838;2023-02-23T12:54:36;14.52;;;1.23;;
55879;SDS011;41802;51.564;-1.838;2023-02-23T12:57:09;15.25;;;1.60;;
55879;SDS011;41802;51.564;-1.838;2023-02-23T13:02:29;11.67;;;1.20;;
55879;SDS011;41802;51.564;-1.838;2023-02-23T13:07:45;11.73;;;1.67;;
55879;SDS011;41802;51.564;-1.838;2023-02-23T13:10:19;10.55;;;1.05;;
55879;SDS011;41802;51.564;-1.838;2023-02-23T13:12:51;9.10;;;1.00;;
55879;SDS011;41802;51.564;-1.838;2023-02-23T13:15:22;9.93;;;1.30;;
55879;SDS011;41802;51.564;-1.838;2023-02-23T13:17:55;10.05;;;1.27;;
55879;SDS011;41802;51.564;-1.838;2023-02-23T13:20:29;17.15;;;1.27;;
55879;SDS011;41802;51.564;-1.838;2023-02-23T13:23:02;12.48;;;1.10;;
55879;SDS011;41802;51.564;-1.838;2023-02-23T13:25:36;12.07;;;1.45;;
55879;SDS011;41802;51.564;-1.838;2023-02-23T13:28:07;12.57;;;1.80;;
55879;SDS011;41802;51.564;-1.838;2023-02-23T13:30:40;7.13;;;0.90;;
55879;SDS011;41802;51.564;-1.838;2023-02-23T13:33:16;12.07;;;1.00;;
55879;SDS011;41802;51.564;-1.838;2023-02-23T13:35:45;11.90;;;1.27;;
55879;SDS011;41802;51.564;-1.838;2023-02-23T13:38:14;10.95;;;1.05;;
55879;SDS011;41802;51.564;-1.838;2023-02-23T13:40:45;7.27;;;0.90;;
55879;SDS011;41802;51.564;-1.838;2023-02-23T13:43:16;11.38;;;1.30;;
55879;SDS011;41802;51.564;-1.838;2023-02-23T13:45:50;10.38;;;1.52;;
55879;SDS011;41802;51.564;-1.838;2023-02-23T13:48:26;8.35;;;0.65;;
55879;SDS011;41802;51.564;-1.838;2023-02-23T13:50:56;9.52;;;1.10;;
55879;SDS011;41802;51.564;-1.838;2023-02-23T13:53:30;8.27;;;1.87;;
55879;SDS011;41802;51.564;-1.838;2023-02-23T13:55:59;11.45;;;0.90;;
55879;SDS011;41802;51.564;-1.838;2023-02-23T13:58:30;9.25;;;0.80;;
55879;SDS011;41802;51.564;-1.838;2023-02-23T14:01:03;11.20;;;1.02;;
55879;SDS011;41802;51.564;-1.838;2023-02-23T14:03:35;13.80;;;1.30;;
55879;SDS011;41802;51.564;-1.838;2023-02-23T14:06:04;10.10;;;2.30;;
55879;SDS011;41802;51.564;-1.838;2023-02-23T14:08:34;12.63;;;1.17;;
55879;SDS011;41802;51.564;-1.838;2023-02-23T14:11:02;12.05;;;1.40;;
55879;SDS011;41802;51.564;-1.838;2023-02-23T14:13:30;8.40;;;0.90;;
55879;SDS011;41802;51.564;-1.838;2023-02-23T14:16:09;9.98;;;1.17;;
55879;SDS011;41802;51.564;-1.838;2023-02-23T14:18:50;8.80;;;0.90;;
55879;SDS011;41802;51.564;-1.838;2023-02-23T14:21:21;14.90;;;1.20;;
55879;SDS011;41802;51.564;-1.838;2023-02-23T14:23:53;10.57;;;1.15;;
55879;SDS011;41802;51.564;-1.838;2023-02-23T14:26:35;6.78;;;0.80;;
55879;SDS011;41802;51.564;-1.838;2023-02-23T14:29:15;9.43;;;1.20;;
55879;SDS011;41802;51.564;-1.838;2023-02-23T14:34:43;8.85;;;1.02;;
55879;SDS011;41802;51.564;-1.838;2023-02-23T14:37:15;9.10;;;0.93;;
55879;SDS011;41802;51.564;-1.838;2023-02-23T14:39:43;6.93;;;0.90;;
55879;SDS011;41802;51.564;-1.838;2023-02-23T14:42:16;10.43;;;1.55;;
55879;SDS011;41802;51.564;-1.838;2023-02-23T14:44:47;17.80;;;0.90;;
55879;SDS011;41802;51.564;-1.838;2023-02-23T14:47:17;9.55;;;0.93;;
55879;SDS011;41802;51.564;-1.838;2023-02-23T14:49:48;7.85;;;1.10;;
55879;SDS011;41802;51.564;-1.838;2023-02-23T14:52:18;8.95;;;0.70;;
55879;SDS011;41802;51.564;-1.838;2023-02-23T14:54:46;7.60;;;0.85;;
55879;SDS011;41802;51.564;-1.838;2023-02-23T14:57:19;11.07;;;1.43;;
55879;SDS011;41802;51.564;-1.838;2023-02-23T14:59:51;7.80;;;0.85;;
55879;SDS011;41802;51.564;-1.838;2023-02-23T15:02:20;7.90;;;0.88;;
55879;SDS011;41802;51.564;-1.838;2023-02-23T15:04:54;10.45;;;1.13;;
55879;SDS011;41802;51.564;-1.838;2023-02-23T15:07:25;8.93;;;0.98;;
55879;SDS011;41802;51.564;-1.838;2023-02-23T15:09:57;10.43;;;0.83;;
55879;SDS011;41802;51.564;-1.838;2023-02-23T15:12:26;13.80;;;1.30;;
55879;SDS011;41802;51.564;-1.838;2023-02-23T15:14:54;12.55;;;1.20;;